createdAt,value
2019-01-30T00:00:37.775Z,40.50
2019-01-30T00:01:43.168Z,46.05
2019-01-30T00:02:48.626Z,44.05
2019-01-30T00:03:54.835Z,42.05
2019-01-30T00:05:00.310Z,43.25
2019-01-30T00:06:06.158Z,42.62
2019-01-30T00:07:12.208Z,46.13
2019-01-30T00:08:17.646Z,44.35
2019-01-30T00:09:23.087Z,43.83
2019-01-30T00:10:29.037Z,47.40
2019-01-30T00:11:35.126Z,46.33
2019-01-30T00:12:42.018Z,49.40
2019-01-30T00:13:48.615Z,45.78
2019-01-30T00:14:54.648Z,46.95
2019-01-30T00:16:02.058Z,43.02
2019-01-30T00:17:08.711Z,45.17
2019-01-30T00:18:14.117Z,43.15
2019-01-30T00:19:21.194Z,38.05
2019-01-30T00:20:27.249Z,44.85
2019-01-30T00:21:33.081Z,46.50
2019-01-30T00:22:39.087Z,45.88
2019-01-30T00:23:45.417Z,41.05
2019-01-30T00:24:51.006Z,42.45
2019-01-30T00:25:57.886Z,43.45
2019-01-30T00:27:04.286Z,45.03
2019-01-30T00:28:10.628Z,43.15
2019-01-30T00:29:15.978Z,48.83
2019-01-30T00:30:26.683Z,46.33
2019-01-30T00:31:32.110Z,44.67
2019-01-30T00:32:37.550Z,41.88
2019-01-30T00:33:42.847Z,44.42
2019-01-30T00:34:48.146Z,45.40
2019-01-30T00:35:53.410Z,44.40
2019-01-30T00:36:58.777Z,45.10
2019-01-30T00:38:06.208Z,39.65
2019-01-30T00:39:13.185Z,43.33
2019-01-30T00:40:23.213Z,41.90
2019-01-30T00:41:29.088Z,48.02
2019-01-30T00:42:35.028Z,46.15
2019-01-30T00:43:41.289Z,44.38
2019-01-30T00:44:47.183Z,43.17
2019-01-30T00:45:53.639Z,46.15
2019-01-30T00:47:00.314Z,46.10
2019-01-30T00:48:06.870Z,48.58
2019-01-30T00:49:12.207Z,51.83
2019-01-30T00:50:26.200Z,47.53
2019-01-30T00:51:33.383Z,46.00
2019-01-30T00:52:39.634Z,52.98
2019-01-30T00:53:45.968Z,48.70
2019-01-30T00:54:51.516Z,47.05
2019-01-30T00:55:57.356Z,49.53
2019-01-30T00:57:04.306Z,46.65
2019-01-30T00:58:10.107Z,48.33
2019-01-30T00:59:15.505Z,44.05
2019-01-30T01:00:25.750Z,50.90
2019-01-30T01:01:31.115Z,47.98
2019-01-30T01:02:36.625Z,48.30
2019-01-30T01:03:42.054Z,47.88
2019-01-30T01:04:47.377Z,46.18
2019-01-30T01:05:52.720Z,45.98
2019-01-30T01:06:58.056Z,44.27
2019-01-30T01:08:04.331Z,47.73
2019-01-30T01:09:11.047Z,45.98
2019-01-30T01:10:19.058Z,42.60
2019-01-30T01:11:25.378Z,43.00
2019-01-30T01:12:31.127Z,38.40
2019-01-30T01:13:36.697Z,43.63
2019-01-30T01:14:43.086Z,44.05
2019-01-30T01:15:50.208Z,41.02
2019-01-30T01:16:56.167Z,46.35
2019-01-30T01:18:03.139Z,45.63
2019-01-30T01:19:10.326Z,44.13
2019-01-30T01:20:20.038Z,44.25
2019-01-30T01:21:26.116Z,42.20
2019-01-30T01:22:32.360Z,45.73
2019-01-30T01:23:38.296Z,42.15
2019-01-30T01:24:44.317Z,47.90
2019-01-30T01:25:51.413Z,44.18
2019-01-30T01:26:57.159Z,45.10
2019-01-30T01:28:04.416Z,40.70
2019-01-30T01:29:10.031Z,47.33
2019-01-30T01:30:25.197Z,43.98
2019-01-30T01:31:29.580Z,43.38
2019-01-30T01:32:34.888Z,46.08
2019-01-30T01:33:40.198Z,44.93
2019-01-30T01:34:45.631Z,44.55
2019-01-30T01:35:50.969Z,42.85
2019-01-30T01:36:56.498Z,41.98
2019-01-30T01:38:03.539Z,43.73
2019-01-30T01:39:10.338Z,44.03
2019-01-30T01:40:18.237Z,43.33
2019-01-30T01:41:25.585Z,41.02
2019-01-30T01:42:32.370Z,41.70
2019-01-30T01:43:37.671Z,45.92
2019-01-30T01:44:43.771Z,46.23
2019-01-30T01:45:51.051Z,41.02
2019-01-30T01:46:56.983Z,45.40
2019-01-30T01:48:03.346Z,46.30
2019-01-30T01:49:09.010Z,46.30
2019-01-30T01:50:18.149Z,44.65
2019-01-30T01:51:24.530Z,40.38
2019-01-30T01:52:30.709Z,42.20
2019-01-30T01:53:36.841Z,40.10
2019-01-30T01:54:42.955Z,43.65
2019-01-30T01:55:49.347Z,40.38
2019-01-30T01:56:54.999Z,41.55
2019-01-30T01:58:00.646Z,40.20
2019-01-30T01:59:06.847Z,39.53
2019-01-30T02:00:23.608Z,41.02
2019-01-30T02:01:28.868Z,40.05
2019-01-30T02:02:34.247Z,38.50
2019-01-30T02:03:39.666Z,37.38
2019-01-30T02:04:45.000Z,39.95
2019-01-30T02:05:50.328Z,40.75
2019-01-30T02:06:55.774Z,39.80
2019-01-30T02:08:01.132Z,41.92
2019-01-30T02:09:08.708Z,42.17
2019-01-30T02:10:19.492Z,38.75
2019-01-30T02:11:25.768Z,43.70
2019-01-30T02:12:32.499Z,44.60
2019-01-30T02:13:38.227Z,43.83
2019-01-30T02:14:44.718Z,43.05
2019-01-30T02:15:50.890Z,47.08
2019-01-30T02:16:56.648Z,43.45
2019-01-30T02:18:03.395Z,42.17
2019-01-30T02:19:10.409Z,46.25
2019-01-30T02:20:20.443Z,39.10
2019-01-30T02:21:26.748Z,41.02
2019-01-30T02:22:33.627Z,41.00
2019-01-30T02:23:39.659Z,38.75
2019-01-30T02:24:46.889Z,40.70
2019-01-30T02:25:52.578Z,39.27
2019-01-30T02:26:59.569Z,37.93
2019-01-30T02:28:07.371Z,44.65
2019-01-30T02:29:12.927Z,40.78
2019-01-30T02:30:21.360Z,41.10
2019-01-30T02:31:26.749Z,38.25
2019-01-30T02:32:31.904Z,40.95
2019-01-30T02:33:37.286Z,39.33
2019-01-30T02:34:43.741Z,39.75
2019-01-30T02:35:48.895Z,40.15
2019-01-30T02:36:57.497Z,41.37
2019-01-30T02:38:03.981Z,43.38
2019-01-30T02:39:09.388Z,40.25
2019-01-30T02:40:18.223Z,35.90
2019-01-30T02:41:24.901Z,41.20
2019-01-30T02:42:31.225Z,41.63
2019-01-30T02:43:36.760Z,38.98
2019-01-30T02:44:43.088Z,39.15
2019-01-30T02:45:48.981Z,44.33
2019-01-30T02:46:56.298Z,45.05
2019-01-30T02:48:02.979Z,45.00
2019-01-30T02:49:08.541Z,44.30
2019-01-30T02:50:18.332Z,38.58
2019-01-30T02:51:25.248Z,40.20
2019-01-30T02:52:30.987Z,44.00
2019-01-30T02:53:37.449Z,41.58
2019-01-30T02:54:44.408Z,39.33
2019-01-30T02:55:50.892Z,43.02
2019-01-30T02:56:57.220Z,41.35
2019-01-30T02:58:03.727Z,38.48
2019-01-30T02:59:10.167Z,44.65
2019-01-30T03:00:22.089Z,45.75
2019-01-30T03:01:27.470Z,43.73
2019-01-30T03:02:32.841Z,43.80
2019-01-30T03:03:38.218Z,48.55
2019-01-30T03:04:43.556Z,45.12
2019-01-30T03:05:48.808Z,43.73
2019-01-30T03:06:54.321Z,47.55
2019-01-30T03:07:59.705Z,51.20
2019-01-30T03:09:07.589Z,46.80
2019-01-30T03:10:19.911Z,44.23
2019-01-30T03:11:26.065Z,50.20
2019-01-30T03:12:31.477Z,47.50
2019-01-30T03:13:37.956Z,44.35
2019-01-30T03:14:46.488Z,47.40
2019-01-30T03:15:51.928Z,50.60
2019-01-30T03:16:58.967Z,48.85
2019-01-30T03:18:05.260Z,50.38
2019-01-30T03:19:11.308Z,52.85
2019-01-30T03:20:22.874Z,48.08
2019-01-30T03:21:30.419Z,51.70
2019-01-30T03:22:36.610Z,52.55
2019-01-30T03:23:43.128Z,54.23
2019-01-30T03:24:49.971Z,51.75
2019-01-30T03:25:55.454Z,49.65
2019-01-30T03:27:01.217Z,53.70
2019-01-30T03:28:06.952Z,50.08
2019-01-30T03:29:13.355Z,56.88
2019-01-30T03:30:28.470Z,47.03
2019-01-30T03:31:33.782Z,49.83
2019-01-30T03:32:39.119Z,51.13
2019-01-30T03:33:45.576Z,53.60
2019-01-30T03:34:50.917Z,49.33
2019-01-30T03:35:56.161Z,48.90
2019-01-30T03:37:01.316Z,48.42
2019-01-30T03:38:06.700Z,53.38
2019-01-30T03:39:12.037Z,51.83
2019-01-30T03:40:21.089Z,45.98
2019-01-30T03:41:27.088Z,52.13
2019-01-30T03:42:34.176Z,47.55
2019-01-30T03:43:40.996Z,48.60
2019-01-30T03:44:46.979Z,49.18
2019-01-30T03:45:53.823Z,47.93
2019-01-30T03:46:59.128Z,51.28
2019-01-30T03:48:05.848Z,53.00
2019-01-30T03:49:13.450Z,47.08
2019-01-30T03:50:19.302Z,53.92
2019-01-30T03:51:25.730Z,54.45
2019-01-30T03:52:32.486Z,50.50
2019-01-30T03:53:38.207Z,50.83
2019-01-30T03:54:43.888Z,50.50
2019-01-30T03:55:50.488Z,46.53
2019-01-30T03:56:56.251Z,48.73
2019-01-30T03:58:02.429Z,52.38
2019-01-30T03:59:08.855Z,53.25
2019-01-30T04:00:26.167Z,49.80
2019-01-30T04:01:31.540Z,50.00
2019-01-30T04:02:36.760Z,53.55
2019-01-30T04:03:43.100Z,53.15
2019-01-30T04:04:48.548Z,52.58
2019-01-30T04:05:53.878Z,53.25
2019-01-30T04:06:59.312Z,62.23
2019-01-30T04:08:04.587Z,65.57
2019-01-30T04:09:11.178Z,58.02
2019-01-30T04:10:20.333Z,57.85
2019-01-30T04:11:27.406Z,52.85
2019-01-30T04:12:33.767Z,55.78
2019-01-30T04:13:39.779Z,54.77
2019-01-30T04:14:45.917Z,52.35
2019-01-30T04:15:53.736Z,55.48
2019-01-30T04:16:59.595Z,62.20
2019-01-30T04:18:05.330Z,56.73
2019-01-30T04:19:11.608Z,58.90
2019-01-30T04:20:19.790Z,58.15
2019-01-30T04:21:27.813Z,60.38
2019-01-30T04:22:35.010Z,52.75
2019-01-30T04:23:41.412Z,59.00
2019-01-30T04:24:47.727Z,57.50
2019-01-30T04:25:54.737Z,50.05
2019-01-30T04:27:00.779Z,51.00
2019-01-30T04:28:06.725Z,49.60
2019-01-30T04:29:13.459Z,52.67
2019-01-30T04:30:25.021Z,49.75
2019-01-30T04:31:38.008Z,51.00
2019-01-30T04:32:37.477Z,51.85
2019-01-30T04:33:42.900Z,56.45
2019-01-30T04:34:48.437Z,51.90
2019-01-30T04:35:53.727Z,57.93
2019-01-30T04:36:58.990Z,56.40
2019-01-30T04:38:04.231Z,55.52
2019-01-30T04:39:10.169Z,52.73
2019-01-30T04:40:19.287Z,51.68
2019-01-30T04:41:26.078Z,58.50
2019-01-30T04:42:33.651Z,59.25
2019-01-30T04:43:39.988Z,57.05
2019-01-30T04:44:47.216Z,50.92
2019-01-30T04:45:53.169Z,51.80
2019-01-30T04:46:59.368Z,55.92
2019-01-30T04:48:05.579Z,57.13
2019-01-30T04:49:12.491Z,61.63
2019-01-30T04:50:18.611Z,55.00
2019-01-30T04:51:25.538Z,58.35
2019-01-30T04:52:31.348Z,57.30
2019-01-30T04:53:38.049Z,61.80
2019-01-30T04:54:44.020Z,58.00
2019-01-30T04:55:50.218Z,53.92
2019-01-30T04:56:56.158Z,52.23
2019-01-30T04:58:02.408Z,53.63
2019-01-30T04:59:09.656Z,58.70
2019-01-30T05:00:25.857Z,63.15
2019-01-30T05:01:31.166Z,62.70
2019-01-30T05:02:36.640Z,58.25
2019-01-30T05:03:42.178Z,61.28
2019-01-30T05:04:47.592Z,54.18
2019-01-30T05:05:53.065Z,56.92
2019-01-30T05:06:58.481Z,62.13
2019-01-30T05:08:03.795Z,57.70
2019-01-30T05:09:09.759Z,56.95
2019-01-30T05:10:15.730Z,57.78
2019-01-30T05:11:22.577Z,57.25
2019-01-30T05:12:30.175Z,59.65
2019-01-30T05:13:35.906Z,55.67
2019-01-30T05:14:42.256Z,55.12
2019-01-30T05:15:49.310Z,56.75
2019-01-30T05:16:55.368Z,58.08
2019-01-30T05:18:01.822Z,54.63
2019-01-30T05:19:09.127Z,61.30
2019-01-30T05:20:18.498Z,59.33
2019-01-30T05:21:25.370Z,59.50
2019-01-30T05:22:32.095Z,57.75
2019-01-30T05:23:37.478Z,54.63
2019-01-30T05:24:44.006Z,66.25
2019-01-30T05:25:50.496Z,60.40
2019-01-30T05:26:55.930Z,56.45
2019-01-30T05:28:02.363Z,62.38
2019-01-30T05:29:08.636Z,61.75
2019-01-30T05:30:31.730Z,59.63
2019-01-30T05:31:37.191Z,55.55
2019-01-30T05:32:42.490Z,62.20
2019-01-30T05:33:47.998Z,56.80
2019-01-30T05:34:53.337Z,57.50
2019-01-30T05:35:58.772Z,57.23
2019-01-30T05:37:04.212Z,63.20
2019-01-30T05:38:09.648Z,59.38
2019-01-30T05:39:14.897Z,57.17
2019-01-30T05:40:22.525Z,59.75
2019-01-30T05:41:28.169Z,63.05
2019-01-30T05:42:33.829Z,57.55
2019-01-30T05:43:42.528Z,59.13
2019-01-30T05:44:48.588Z,60.70
2019-01-30T05:45:53.980Z,61.25
2019-01-30T05:47:00.731Z,62.80
2019-01-30T05:48:08.267Z,64.22
2019-01-30T05:49:13.908Z,61.30
2019-01-30T05:50:20.290Z,63.90
2019-01-30T05:51:26.332Z,57.27
2019-01-30T05:52:31.850Z,59.93
2019-01-30T05:53:38.049Z,59.10
2019-01-30T05:54:44.770Z,64.40
2019-01-30T05:55:50.097Z,64.95
2019-01-30T05:56:57.087Z,60.15
2019-01-30T05:58:03.138Z,60.80
2019-01-30T05:59:08.654Z,65.08
2019-01-30T06:00:26.929Z,61.37
2019-01-30T06:01:32.248Z,60.10
2019-01-30T06:02:37.487Z,59.73
2019-01-30T06:03:43.087Z,64.90
2019-01-30T06:04:48.516Z,68.20
2019-01-30T06:05:53.738Z,65.05
2019-01-30T06:06:59.169Z,72.22
2019-01-30T06:08:04.458Z,63.10
2019-01-30T06:09:09.805Z,62.17
2019-01-30T06:10:16.239Z,71.50
2019-01-30T06:11:23.049Z,62.13
2019-01-30T06:12:29.616Z,67.58
2019-01-30T06:13:35.265Z,63.13
2019-01-30T06:14:41.538Z,70.00
2019-01-30T06:15:47.867Z,67.30
2019-01-30T06:16:53.494Z,67.95
2019-01-30T06:17:59.247Z,80.60
2019-01-30T06:19:06.062Z,84.07
2019-01-30T06:20:16.231Z,92.65
2019-01-30T06:21:22.544Z,92.42
2019-01-30T06:22:29.093Z,95.47
2019-01-30T06:23:34.498Z,93.60
2019-01-30T06:24:40.272Z,83.47
2019-01-30T06:25:48.085Z,85.65
2019-01-30T06:26:54.257Z,81.22
2019-01-30T06:28:00.407Z,72.55
2019-01-30T06:29:06.587Z,72.27
2019-01-30T06:30:16.896Z,74.22
2019-01-30T06:31:22.307Z,77.50
2019-01-30T06:32:27.806Z,70.75
2019-01-30T06:33:33.290Z,73.55
2019-01-30T06:34:38.680Z,70.60
2019-01-30T06:35:44.129Z,67.60
2019-01-30T06:36:49.640Z,64.55
2019-01-30T06:37:54.998Z,61.35
2019-01-30T06:39:00.398Z,68.05
2019-01-30T06:40:10.850Z,70.45
2019-01-30T06:41:17.658Z,69.58
2019-01-30T06:42:23.749Z,71.05
2019-01-30T06:43:30.234Z,71.57
2019-01-30T06:44:36.684Z,70.62
2019-01-30T06:45:43.252Z,76.65
2019-01-30T06:46:49.476Z,74.92
2019-01-30T06:47:55.249Z,73.42
2019-01-30T06:49:00.988Z,79.42
2019-01-30T06:50:12.247Z,70.35
2019-01-30T06:51:18.007Z,61.58
2019-01-30T06:52:24.449Z,62.15
2019-01-30T06:53:31.048Z,70.35
2019-01-30T06:54:37.169Z,66.17
2019-01-30T06:55:45.028Z,62.62
2019-01-30T06:56:52.175Z,62.93
2019-01-30T06:57:57.968Z,65.83
2019-01-30T06:59:05.876Z,62.83
2019-01-30T07:00:19.734Z,65.22
2019-01-30T07:01:25.629Z,61.85
2019-01-30T07:02:32.398Z,74.25
2019-01-30T07:03:38.021Z,67.12
2019-01-30T07:04:43.377Z,72.47
2019-01-30T07:05:48.619Z,69.20
2019-01-30T07:06:53.989Z,71.90
2019-01-30T07:07:59.359Z,74.22
2019-01-30T07:09:08.070Z,74.03
2019-01-30T07:10:23.025Z,80.15
2019-01-30T07:11:28.380Z,76.10
2019-01-30T07:12:35.046Z,72.82
2019-01-30T07:13:41.496Z,69.82
2019-01-30T07:14:47.639Z,68.70
2019-01-30T07:15:54.180Z,73.57
2019-01-30T07:17:01.037Z,73.85
2019-01-30T07:19:56.536Z,74.32
2019-01-30T07:24:18.202Z,74.58
2019-01-30T07:25:24.737Z,71.80
2019-01-30T07:26:31.537Z,70.25
2019-01-30T07:27:36.967Z,75.08
2019-01-30T07:28:43.409Z,75.60
2019-01-30T07:29:49.786Z,74.37
2019-01-30T07:30:55.599Z,73.35
2019-01-30T07:32:01.602Z,75.50
2019-01-30T07:33:06.839Z,78.25
2019-01-30T07:34:12.320Z,79.55
2019-01-30T07:35:18.694Z,84.15
2019-01-30T07:36:24.118Z,77.40
2019-01-30T07:37:29.547Z,77.22
2019-01-30T07:38:34.804Z,85.72
2019-01-30T07:39:40.027Z,98.40
2019-01-30T07:40:45.499Z,112.12
2019-01-30T07:41:52.239Z,129.93
2019-01-30T07:42:58.218Z,168.28
2019-01-30T07:44:04.198Z,139.82
2019-01-30T07:45:15.184Z,112.17
2019-01-30T07:46:21.451Z,90.90
2019-01-30T07:47:27.491Z,92.70
2019-01-30T07:48:33.647Z,87.33
2019-01-30T07:49:40.516Z,82.67
2019-01-30T07:50:46.315Z,86.20
2019-01-30T07:51:53.050Z,76.87
2019-01-30T07:52:59.567Z,79.03
2019-01-30T07:54:05.389Z,76.62
2019-01-30T07:55:16.135Z,78.47
2019-01-30T07:56:22.920Z,71.30
2019-01-30T07:57:28.769Z,76.97
2019-01-30T07:58:34.398Z,77.87
2019-01-30T07:59:41.570Z,79.03
2019-01-30T08:00:48.369Z,76.02
2019-01-30T08:01:53.779Z,72.10
2019-01-30T08:02:59.096Z,76.07
2019-01-30T08:04:04.418Z,78.97
2019-01-30T08:05:10.683Z,75.40
2019-01-30T08:06:16.060Z,79.27
2019-01-30T08:07:21.658Z,82.40
2019-01-30T08:08:26.813Z,80.80
2019-01-30T08:09:32.182Z,77.42
2019-01-30T08:10:37.632Z,79.95
2019-01-30T08:11:43.926Z,74.95
2019-01-30T08:12:50.166Z,73.07
2019-01-30T08:13:56.244Z,75.30
2019-01-30T08:15:02.460Z,71.45
2019-01-30T08:16:08.270Z,77.17
2019-01-30T08:17:15.138Z,70.00
2019-01-30T08:18:20.965Z,66.57
2019-01-30T08:19:27.414Z,73.97
2019-01-30T08:20:33.205Z,72.58
2019-01-30T08:21:39.926Z,77.25
2019-01-30T08:22:47.507Z,69.87
2019-01-30T08:23:53.879Z,70.85
2019-01-30T08:25:08.119Z,74.90
2019-01-30T08:26:14.162Z,75.15
2019-01-30T08:27:19.649Z,74.25
2019-01-30T08:28:26.319Z,71.95
2019-01-30T08:29:32.478Z,74.72
2019-01-30T08:30:38.212Z,73.97
2019-01-30T08:31:44.064Z,72.78
2019-01-30T08:32:49.600Z,72.03
2019-01-30T08:33:54.895Z,70.22
2019-01-30T08:35:00.327Z,69.85
2019-01-30T08:36:06.085Z,67.80
2019-01-30T08:37:11.319Z,68.97
2019-01-30T08:38:16.830Z,73.55
2019-01-30T08:39:22.178Z,73.20
2019-01-30T08:40:27.598Z,76.95
2019-01-30T08:41:32.853Z,66.10
2019-01-30T08:42:39.113Z,69.32
2019-01-30T08:43:44.760Z,69.82
2019-01-30T08:44:51.448Z,69.12
2019-01-30T08:45:56.917Z,72.78
2019-01-30T08:47:02.560Z,71.70
2019-01-30T08:48:08.242Z,76.47
2019-01-30T08:49:14.868Z,73.45
2019-01-30T08:50:20.748Z,73.92
2019-01-30T08:51:26.997Z,91.37
2019-01-30T08:52:33.061Z,95.10
2019-01-30T08:53:40.417Z,94.60
2019-01-30T08:54:46.207Z,81.45
2019-01-30T08:55:51.878Z,78.87
2019-01-30T08:56:58.889Z,76.28
2019-01-30T08:58:05.949Z,87.65
2019-01-30T08:59:11.648Z,82.22
2019-01-30T09:00:25.198Z,79.58
2019-01-30T09:01:31.607Z,71.55
2019-01-30T09:02:37.395Z,65.22
2019-01-30T09:03:42.574Z,66.50
2019-01-30T09:04:47.926Z,62.98
2019-01-30T09:05:53.373Z,57.20
2019-01-30T09:06:59.724Z,58.15
2019-01-30T09:08:04.978Z,59.15
2019-01-30T09:09:10.789Z,58.73
2019-01-30T09:10:19.240Z,56.05
2019-01-30T09:11:24.564Z,58.02
2019-01-30T09:12:30.248Z,58.42
2019-01-30T09:13:36.808Z,54.27
2019-01-30T09:14:42.567Z,59.20
2019-01-30T09:15:49.055Z,58.38
2019-01-30T09:16:54.697Z,54.83
2019-01-30T09:18:00.735Z,56.90
2019-01-30T09:19:07.475Z,56.30
2019-01-30T09:20:16.746Z,54.27
2019-01-30T09:21:22.847Z,49.95
2019-01-30T09:22:28.997Z,48.98
2019-01-30T09:23:35.053Z,51.90
2019-01-30T09:24:42.007Z,51.05
2019-01-30T09:25:47.857Z,48.75
2019-01-30T09:26:53.638Z,52.05
2019-01-30T09:28:02.087Z,47.62
2019-01-30T09:29:08.946Z,46.85
2019-01-30T09:30:24.438Z,44.67
2019-01-30T09:31:30.091Z,47.58
2019-01-30T09:32:35.618Z,42.60
2019-01-30T09:33:40.950Z,41.63
2019-01-30T09:34:46.476Z,43.05
2019-01-30T09:35:51.809Z,43.40
2019-01-30T09:36:57.135Z,42.73
2019-01-30T09:38:02.411Z,46.65
2019-01-30T09:39:08.985Z,38.33
2019-01-30T09:40:18.767Z,41.08
2019-01-30T09:41:24.256Z,35.88
2019-01-30T09:42:29.560Z,40.80
2019-01-30T09:43:36.177Z,35.70
2019-01-30T09:44:42.726Z,42.27
2019-01-30T09:45:49.075Z,40.10
2019-01-30T09:46:55.577Z,37.23
2019-01-30T09:48:01.747Z,39.30
2019-01-30T09:49:07.663Z,35.43
2019-01-30T09:50:18.016Z,39.40
2019-01-30T09:51:23.486Z,37.25
2019-01-30T09:52:29.190Z,33.63
2019-01-30T09:53:35.368Z,35.15
2019-01-30T09:54:40.821Z,44.53
2019-01-30T09:55:47.121Z,40.10
2019-01-30T09:56:54.007Z,32.55
2019-01-30T09:57:59.760Z,37.50
2019-01-30T09:59:05.875Z,35.70
2019-01-30T10:00:28.947Z,39.75
2019-01-30T10:01:34.590Z,32.98
2019-01-30T10:02:40.021Z,34.92
2019-01-30T10:03:45.254Z,32.90
2019-01-30T10:04:50.784Z,35.00
2019-01-30T10:05:56.164Z,36.55
2019-01-30T10:07:01.433Z,33.95
2019-01-30T10:08:06.938Z,28.02
2019-01-30T10:09:12.338Z,34.43
2019-01-30T10:10:30.424Z,33.67
2019-01-30T10:11:35.792Z,36.00
2019-01-30T10:12:41.488Z,33.78
2019-01-30T10:13:47.043Z,40.67
2019-01-30T10:14:53.102Z,29.87
2019-01-30T10:15:58.510Z,33.35
2019-01-30T10:17:04.016Z,30.62
2019-01-30T10:18:09.948Z,36.83
2019-01-30T10:19:15.813Z,46.53
2019-01-30T10:20:24.151Z,43.38
2019-01-30T10:21:30.505Z,47.65
2019-01-30T10:22:35.830Z,39.27
2019-01-30T10:23:42.159Z,35.73
2019-01-30T10:24:50.468Z,33.92
2019-01-30T10:25:55.736Z,46.63
2019-01-30T10:27:01.529Z,40.75
2019-01-30T10:28:16.336Z,36.33
2019-01-30T10:29:15.981Z,32.73
2019-01-30T10:30:29.433Z,27.95
2019-01-30T10:31:35.537Z,30.35
2019-01-30T10:32:40.997Z,31.70
2019-01-30T10:33:46.904Z,30.68
2019-01-30T10:34:52.505Z,30.75
2019-01-30T10:35:57.876Z,31.02
2019-01-30T10:37:03.749Z,29.60
2019-01-30T10:38:09.234Z,29.07
2019-01-30T10:39:14.671Z,30.02
2019-01-30T10:40:22.044Z,31.68
2019-01-30T10:41:27.356Z,29.80
2019-01-30T10:42:32.791Z,26.12
2019-01-30T10:43:38.918Z,26.82
2019-01-30T10:44:44.689Z,32.08
2019-01-30T10:45:50.439Z,28.50
2019-01-30T10:46:57.575Z,33.70
2019-01-30T10:48:03.672Z,27.65
2019-01-30T10:49:09.685Z,31.82
2019-01-30T10:50:23.307Z,22.17
2019-01-30T10:51:29.731Z,21.95
2019-01-30T10:52:35.728Z,21.15
2019-01-30T10:53:41.283Z,21.75
2019-01-30T10:54:47.518Z,20.30
2019-01-30T10:55:54.729Z,22.00
2019-01-30T10:57:00.555Z,26.55
2019-01-30T10:58:17.487Z,25.10
2019-01-30T10:59:26.650Z,28.67
2019-01-30T11:00:42.624Z,26.60
2019-01-30T11:01:49.887Z,24.65
2019-01-30T11:02:55.185Z,38.23
2019-01-30T11:04:00.513Z,32.55
2019-01-30T11:05:09.670Z,32.45
2019-01-30T11:06:15.156Z,33.28
2019-01-30T11:07:20.498Z,35.85
2019-01-30T11:08:25.800Z,35.58
2019-01-30T11:09:31.242Z,39.10
2019-01-30T11:10:36.762Z,40.45
2019-01-30T11:11:42.615Z,45.95
2019-01-30T11:12:49.275Z,56.25
2019-01-30T11:13:55.213Z,45.55
2019-01-30T11:15:02.906Z,41.33
2019-01-30T11:16:07.830Z,41.98
2019-01-30T11:17:14.370Z,36.53
2019-01-30T11:18:21.294Z,32.80
2019-01-30T11:19:27.074Z,28.77
2019-01-30T11:20:33.096Z,31.68
2019-01-30T11:21:38.818Z,35.13
2019-01-30T11:22:45.279Z,26.07
2019-01-30T11:23:52.408Z,28.32
2019-01-30T11:24:57.856Z,25.60
2019-01-30T11:26:03.685Z,25.65
2019-01-30T11:27:10.125Z,26.42
2019-01-30T11:28:15.792Z,27.10
2019-01-30T11:29:21.929Z,31.05
2019-01-30T11:30:28.425Z,25.23
2019-01-30T11:31:34.557Z,19.95
2019-01-30T11:32:39.835Z,20.17
2019-01-30T11:33:44.984Z,18.70
2019-01-30T11:34:50.234Z,23.98
2019-01-30T11:35:55.462Z,19.45
2019-01-30T11:37:00.981Z,15.03
2019-01-30T11:38:08.740Z,16.32
2019-01-30T11:39:13.285Z,16.10
2019-01-30T11:40:22.034Z,18.32
2019-01-30T11:41:28.451Z,16.48
2019-01-30T11:42:34.208Z,19.00
2019-01-30T11:43:39.945Z,17.15
2019-01-30T11:44:45.966Z,16.85
2019-01-30T11:45:52.848Z,16.25
2019-01-30T11:46:58.310Z,16.90
2019-01-30T11:48:04.155Z,18.45
2019-01-30T11:49:10.427Z,17.82
2019-01-30T11:50:17.700Z,14.20
2019-01-30T11:51:23.700Z,14.03
2019-01-30T11:52:30.205Z,14.98
2019-01-30T11:53:35.594Z,13.93
2019-01-30T11:54:41.471Z,11.43
2019-01-30T11:55:47.367Z,13.18
2019-01-30T11:56:53.037Z,12.13
2019-01-30T11:57:59.104Z,12.18
2019-01-30T11:59:04.991Z,15.48
2019-01-30T12:00:16.787Z,15.43
2019-01-30T12:01:22.455Z,14.13
2019-01-30T12:02:28.609Z,15.00
2019-01-30T12:03:34.230Z,16.40
2019-01-30T12:04:39.514Z,15.75
2019-01-30T12:05:45.448Z,17.65
2019-01-30T12:06:50.949Z,16.45
2019-01-30T12:07:56.297Z,19.35
2019-01-30T12:09:01.610Z,20.30
2019-01-30T12:10:14.456Z,23.85
2019-01-30T12:11:19.870Z,20.52
2019-01-30T12:12:25.403Z,23.32
2019-01-30T12:13:30.772Z,30.62
2019-01-30T12:14:37.104Z,27.13
2019-01-30T12:15:43.813Z,26.48
2019-01-30T12:16:49.586Z,24.55
2019-01-30T12:17:55.046Z,29.15
2019-01-30T12:19:01.143Z,27.95
2019-01-30T12:20:12.703Z,27.17
2019-01-30T12:21:18.429Z,21.37
2019-01-30T12:22:24.447Z,26.17
2019-01-30T12:23:30.078Z,26.85
2019-01-30T12:24:36.329Z,27.48
2019-01-30T12:25:43.255Z,27.93
2019-01-30T12:26:49.038Z,24.95
2019-01-30T12:27:55.280Z,23.90
2019-01-30T12:29:01.025Z,22.75
2019-01-30T12:30:15.126Z,21.90
2019-01-30T12:31:22.056Z,21.15
2019-01-30T12:32:27.760Z,20.80
2019-01-30T12:33:33.008Z,21.40
2019-01-30T12:34:38.335Z,16.00
2019-01-30T12:35:43.706Z,16.30
2019-01-30T12:36:49.109Z,19.85
2019-01-30T12:37:54.427Z,21.82
2019-01-30T12:38:59.959Z,21.35
2019-01-30T12:40:18.530Z,24.12
2019-01-30T12:41:23.837Z,25.17
2019-01-30T12:42:29.174Z,21.00
2019-01-30T12:43:36.219Z,19.92
2019-01-30T12:44:41.853Z,21.27
2019-01-30T12:45:47.672Z,16.20
2019-01-30T12:46:55.657Z,15.50
2019-01-30T12:48:02.438Z,17.37
2019-01-30T12:49:08.832Z,19.77
2019-01-30T12:50:14.469Z,17.80
2019-01-30T12:51:20.807Z,16.05
2019-01-30T12:52:28.217Z,16.80
2019-01-30T12:53:34.867Z,14.87
2019-01-30T12:54:41.818Z,14.70
2019-01-30T12:55:48.098Z,18.37
2019-01-30T12:56:53.785Z,23.15
2019-01-30T12:58:01.097Z,16.80
2019-01-30T12:59:07.453Z,19.60
2019-01-30T13:00:33.079Z,13.93
2019-01-30T13:01:39.468Z,15.28
2019-01-30T13:02:46.231Z,17.02
2019-01-30T13:03:51.760Z,12.13
2019-01-30T13:04:57.410Z,18.10
2019-01-30T13:06:03.624Z,14.73
2019-01-30T13:07:09.315Z,15.10
2019-01-30T13:08:16.726Z,14.45
2019-01-30T13:09:22.650Z,15.35
2019-01-30T13:10:28.500Z,14.33
2019-01-30T13:11:34.045Z,14.65
2019-01-30T13:12:40.598Z,12.43
2019-01-30T13:13:47.198Z,13.18
2019-01-30T13:14:53.336Z,14.70
2019-01-30T13:15:59.155Z,14.00
2019-01-30T13:17:05.016Z,18.60
2019-01-30T13:18:17.978Z,14.55
2019-01-30T13:19:19.006Z,16.10
2019-01-30T13:20:25.227Z,13.75
2019-01-30T13:21:30.998Z,16.70
2019-01-30T13:22:37.417Z,17.52
2019-01-30T13:23:43.435Z,19.27
2019-01-30T13:24:49.946Z,18.37
2019-01-30T13:25:56.107Z,19.15
2019-01-30T13:27:02.566Z,21.15
2019-01-30T13:28:09.918Z,20.60
2019-01-30T13:29:16.728Z,19.17
2019-01-30T13:30:26.942Z,21.95
2019-01-30T13:31:34.667Z,20.68
2019-01-30T13:32:41.650Z,20.60
2019-01-30T13:33:47.428Z,23.22
2019-01-30T13:34:53.122Z,22.02
2019-01-30T13:36:00.220Z,27.35
2019-01-30T13:37:06.008Z,24.95
2019-01-30T13:38:12.440Z,35.92
2019-01-30T13:39:18.231Z,34.67
2019-01-30T13:40:28.093Z,42.40
2019-01-30T13:41:33.891Z,43.23
2019-01-30T13:42:39.757Z,37.80
2019-01-30T13:43:45.961Z,41.23
2019-01-30T13:44:52.536Z,37.70
2019-01-30T13:46:05.517Z,36.25
2019-01-30T13:47:08.977Z,41.28
2019-01-30T13:48:15.465Z,35.17
2019-01-30T13:49:22.947Z,35.63
2019-01-30T13:50:30.802Z,41.00
2019-01-30T13:51:38.482Z,35.30
2019-01-30T13:52:45.444Z,29.90
2019-01-30T13:53:51.533Z,35.83
2019-01-30T13:54:58.518Z,32.30
2019-01-30T13:56:05.256Z,33.48
2019-01-30T13:57:11.575Z,36.73
2019-01-30T13:58:17.168Z,35.75
2019-01-30T13:59:23.744Z,37.10
2019-01-30T14:00:36.281Z,34.58
2019-01-30T14:01:42.762Z,38.80
2019-01-30T14:02:48.443Z,36.50
2019-01-30T14:03:54.138Z,40.83
2019-01-30T14:04:59.883Z,33.73
2019-01-30T14:06:05.980Z,38.88
2019-01-30T14:07:11.779Z,38.50
2019-01-30T14:08:17.658Z,34.85
2019-01-30T14:09:23.607Z,40.67
2019-01-30T14:10:28.897Z,42.62
2019-01-30T14:11:34.249Z,37.90
2019-01-30T14:12:39.638Z,41.50
2019-01-30T14:13:45.065Z,41.18
2019-01-30T14:14:52.982Z,35.38
2019-01-30T14:15:59.306Z,37.93
2019-01-30T14:17:04.802Z,38.05
2019-01-30T14:18:11.209Z,36.50
2019-01-30T14:19:17.369Z,37.28
2019-01-30T14:20:23.347Z,37.28
2019-01-30T14:21:29.808Z,40.88
2019-01-30T14:22:36.538Z,41.60